sensor_id;sensor_type;location;lat;lon;timestamp;P1;durP1;ratioP1;P2;durP2;ratioP2
64868;SDS011;51349;52.424;10.840;2022-10-23T00:00:24;6.53;;;4.93;;
64868;SDS011;51349;52.424;10.840;2022-10-23T00:05:25;6.68;;;4.65;;
64868;SDS011;51349;52.424;10.840;2022-10-23T00:10:27;9.40;;;4.97;;
64868;SDS011;51349;52.424;10.840;2022-10-23T00:15:28;8.00;;;5.38;;
64868;SDS011;51349;52.424;10.840;2022-10-23T00:20:28;5.30;;;4.60;;
64868;SDS011;51349;52.424;10.840;2022-10-23T00:25:29;6.57;;;4.65;;
64868;SDS011;51349;52.424;10.840;2022-10-23T00:30:31;6.28;;;4.28;;
64868;SDS011;51349;52.424;10.840;2022-10-23T00:35:31;7.80;;;4.05;;
64868;SDS011;51349;52.424;10.840;2022-10-23T00:40:32;4.68;;;3.70;;
64868;SDS011;51349;52.424;10.840;2022-10-23T00:45:33;4.28;;;3.80;;
64868;SDS011;51349;52.424;10.840;2022-10-23T00:50:34;6.00;;;4.30;;
64868;SDS011;51349;52.424;10.840;2022-10-23T00:55:35;4.70;;;4.07;;
64868;SDS011;51349;52.424;10.840;2022-10-23T01:00:43;6.38;;;4.65;;
64868;SDS011;51349;52.424;10.840;2022-10-23T01:06:12;5.45;;;3.95;;
64868;SDS011;51349;52.424;10.840;2022-10-23T01:16:34;4.55;;;3.58;;
64868;SDS011;51349;52.424;10.840;2022-10-23T01:27:17;3.47;;;3.28;;
64868;SDS011;51349;52.424;10.840;2022-10-23T01:37:37;5.63;;;3.97;;
64868;SDS011;51349;52.424;10.840;2022-10-23T01:42:43;4.75;;;3.90;;
64868;SDS011;51349;52.424;10.840;2022-10-23T01:47:49;6.60;;;3.85;;
64868;SDS011;51349;52.424;10.840;2022-10-23T01:52:51;3.78;;;3.47;;
64868;SDS011;51349;52.424;10.840;2022-10-23T01:57:51;6.47;;;3.80;;
64868;SDS011;51349;52.424;10.840;2022-10-23T02:02:53;3.80;;;3.40;;
64868;SDS011;51349;52.424;10.840;2022-10-23T02:07:56;4.55;;;3.78;;
64868;SDS011;51349;52.424;10.840;2022-10-23T02:13:11;4.35;;;3.95;;
64868;SDS011;51349;52.424;10.840;2022-10-23T02:28:54;4.15;;;3.47;;
64868;SDS011;51349;52.424;10.840;2022-10-23T02:34:14;5.40;;;3.50;;
64868;SDS011;51349;52.424;10.840;2022-10-23T02:39:15;4.72;;;3.78;;
64868;SDS011;51349;52.424;10.840;2022-10-23T03:00:00;6.30;;;3.50;;
64868;SDS011;51349;52.424;10.840;2022-10-23T03:05:12;4.00;;;3.40;;
64868;SDS011;51349;52.424;10.840;2022-10-23T03:10:16;3.57;;;3.03;;
64868;SDS011;51349;52.424;10.840;2022-10-23T03:15:17;3.13;;;2.80;;
64868;SDS011;51349;52.424;10.840;2022-10-23T03:20:18;3.63;;;3.23;;
64868;SDS011;51349;52.424;10.840;2022-10-23T03:25:18;3.80;;;3.37;;
64868;SDS011;51349;52.424;10.840;2022-10-23T03:30:19;3.25;;;2.95;;
64868;SDS011;51349;52.424;10.840;2022-10-23T03:35:20;3.80;;;3.20;;
64868;SDS011;51349;52.424;10.840;2022-10-23T03:40:20;5.25;;;3.20;;
64868;SDS011;51349;52.424;10.840;2022-10-23T03:45:21;3.53;;;3.22;;
64868;SDS011;51349;52.424;10.840;2022-10-23T03:50:21;3.70;;;3.40;;
64868;SDS011;51349;52.424;10.840;2022-10-23T03:55:25;5.32;;;3.20;;
64868;SDS011;51349;52.424;10.840;2022-10-23T04:00:26;3.57;;;3.23;;
64868;SDS011;51349;52.424;10.840;2022-10-23T04:05:26;3.67;;;3.20;;
64868;SDS011;51349;52.424;10.840;2022-10-23T04:10:27;4.55;;;3.25;;
64868;SDS011;51349;52.424;10.840;2022-10-23T04:15:27;7.37;;;3.23;;
64868;SDS011;51349;52.424;10.840;2022-10-23T04:20:28;4.00;;;3.53;;
64868;SDS011;51349;52.424;10.840;2022-10-23T04:25:29;4.43;;;4.03;;
64868;SDS011;51349;52.424;10.840;2022-10-23T04:30:29;6.13;;;3.73;;
64868;SDS011;51349;52.424;10.840;2022-10-23T04:35:30;4.43;;;3.87;;
64868;SDS011;51349;52.424;10.840;2022-10-23T04:40:30;3.60;;;3.23;;
64868;SDS011;51349;52.424;10.840;2022-10-23T04:45:31;5.37;;;3.23;;
64868;SDS011;51349;52.424;10.840;2022-10-23T04:50:31;3.30;;;3.10;;
64868;SDS011;51349;52.424;10.840;2022-10-23T04:55:32;4.80;;;3.37;;
64868;SDS011;51349;52.424;10.840;2022-10-23T05:00:33;5.27;;;3.13;;
64868;SDS011;51349;52.424;10.840;2022-10-23T05:05:33;3.40;;;3.20;;
64868;SDS011;51349;52.424;10.840;2022-10-23T05:10:34;3.23;;;2.93;;
64868;SDS011;51349;52.424;10.840;2022-10-23T05:15:35;4.60;;;2.80;;
64868;SDS011;51349;52.424;10.840;2022-10-23T05:20:35;3.33;;;2.97;;
64868;SDS011;51349;52.424;10.840;2022-10-23T05:25:38;3.20;;;2.90;;
64868;SDS011;51349;52.424;10.840;2022-10-23T05:30:39;3.60;;;2.73;;
64868;SDS011;51349;52.424;10.840;2022-10-23T05:35:41;5.60;;;2.90;;
64868;SDS011;51349;52.424;10.840;2022-10-23T05:40:44;2.83;;;2.63;;
64868;SDS011;51349;52.424;10.840;2022-10-23T05:45:44;3.30;;;2.97;;
64868;SDS011;51349;52.424;10.840;2022-10-23T05:50:45;5.17;;;3.70;;
64868;SDS011;51349;52.424;10.840;2022-10-23T05:55:48;5.80;;;3.33;;
64868;SDS011;51349;52.424;10.840;2022-10-23T06:00:49;3.33;;;2.70;;
64868;SDS011;51349;52.424;10.840;2022-10-23T06:05:50;2.90;;;2.70;;
64868;SDS011;51349;52.424;10.840;2022-10-23T06:10:51;4.60;;;4.10;;
64868;SDS011;51349;52.424;10.840;2022-10-23T06:15:51;4.33;;;3.43;;
64868;SDS011;51349;52.424;10.840;2022-10-23T06:20:55;5.17;;;4.00;;
64868;SDS011;51349;52.424;10.840;2022-10-23T06:25:56;8.03;;;5.37;;
64868;SDS011;51349;52.424;10.840;2022-10-23T06:30:56;9.57;;;6.97;;
64868;SDS011;51349;52.424;10.840;2022-10-23T06:35:57;11.40;;;6.90;;
64868;SDS011;51349;52.424;10.840;2022-10-23T06:40:57;9.90;;;6.80;;
64868;SDS011;51349;52.424;10.840;2022-10-23T06:46:02;8.23;;;5.83;;
64868;SDS011;51349;52.424;10.840;2022-10-23T06:51:05;7.53;;;5.10;;
64868;SDS011;51349;52.424;10.840;2022-10-23T06:56:08;5.47;;;4.27;;
64868;SDS011;51349;52.424;10.840;2022-10-23T07:01:10;5.20;;;4.10;;
64868;SDS011;51349;52.424;10.840;2022-10-23T07:06:12;5.90;;;4.30;;
64868;SDS011;51349;52.424;10.840;2022-10-23T07:11:12;4.20;;;3.80;;
64868;SDS011;51349;52.424;10.840;2022-10-23T07:16:15;5.87;;;4.07;;
64868;SDS011;51349;52.424;10.840;2022-10-23T07:21:20;3.80;;;3.40;;
64868;SDS011;51349;52.424;10.840;2022-10-23T07:26:23;3.80;;;3.40;;
64868;SDS011;51349;52.424;10.840;2022-10-23T07:31:24;4.43;;;3.70;;
64868;SDS011;51349;52.424;10.840;2022-10-23T07:36:25;5.20;;;3.27;;
64868;SDS011;51349;52.424;10.840;2022-10-23T07:41:26;4.23;;;2.87;;
64868;SDS011;51349;52.424;10.840;2022-10-23T07:46:27;5.03;;;3.17;;
64868;SDS011;51349;52.424;10.840;2022-10-23T07:51:27;2.83;;;2.63;;
64868;SDS011;51349;52.424;10.840;2022-10-23T07:56:28;11.20;;;3.33;;
64868;SDS011;51349;52.424;10.840;2022-10-23T08:01:46;5.43;;;3.47;;
64868;SDS011;51349;52.424;10.840;2022-10-23T08:06:47;4.17;;;3.77;;
64868;SDS011;51349;52.424;10.840;2022-10-23T08:11:48;4.32;;;3.38;;
64868;SDS011;51349;52.424;10.840;2022-10-23T08:16:49;4.18;;;3.78;;
64868;SDS011;51349;52.424;10.840;2022-10-23T08:21:51;6.27;;;4.10;;
64868;SDS011;51349;52.424;10.840;2022-10-23T08:26:54;5.70;;;4.10;;
64868;SDS011;51349;52.424;10.840;2022-10-23T08:37:04;7.68;;;3.70;;
64868;SDS011;51349;52.424;10.840;2022-10-23T08:42:18;4.38;;;3.95;;
64868;SDS011;51349;52.424;10.840;2022-10-23T08:47:28;8.45;;;3.20;;
64868;SDS011;51349;52.424;10.840;2022-10-23T08:58:16;6.40;;;2.80;;
64868;SDS011;51349;52.424;10.840;2022-10-23T09:03:46;4.60;;;3.00;;
64868;SDS011;51349;52.424;10.840;2022-10-23T09:25:26;3.55;;;2.60;;
64868;SDS011;51349;52.424;10.840;2022-10-23T09:30:30;5.60;;;3.55;;
64868;SDS011;51349;52.424;10.840;2022-10-23T09:35:36;4.25;;;2.05;;
64868;SDS011;51349;52.424;10.840;2022-10-23T09:40:40;2.72;;;2.28;;
64868;SDS011;51349;52.424;10.840;2022-10-23T09:45:54;2.97;;;2.38;;
64868;SDS011;51349;52.424;10.840;2022-10-23T09:50:59;3.65;;;2.35;;
64868;SDS011;51349;52.424;10.840;2022-10-23T09:56:24;3.63;;;2.65;;
64868;SDS011;51349;52.424;10.840;2022-10-23T10:01:32;4.65;;;2.42;;
64868;SDS011;51349;52.424;10.840;2022-10-23T10:06:58;3.25;;;2.33;;
64868;SDS011;51349;52.424;10.840;2022-10-23T10:12:15;4.65;;;2.22;;
64868;SDS011;51349;52.424;10.840;2022-10-23T10:33:25;4.20;;;2.22;;
64868;SDS011;51349;52.424;10.840;2022-10-23T10:49:18;5.38;;;1.90;;
64868;SDS011;51349;52.424;10.840;2022-10-23T10:54:38;2.78;;;1.90;;
64868;SDS011;51349;52.424;10.840;2022-10-23T10:59:45;4.00;;;2.00;;
64868;SDS011;51349;52.424;10.840;2022-10-23T11:09:56;3.30;;;2.10;;
64868;SDS011;51349;52.424;10.840;2022-10-23T11:14:59;2.75;;;2.22;;
64868;SDS011;51349;52.424;10.840;2022-10-23T11:25:45;3.92;;;2.10;;
64868;SDS011;51349;52.424;10.840;2022-10-23T11:31:34;2.80;;;2.20;;
64868;SDS011;51349;52.424;10.840;2022-10-23T11:36:55;1.98;;;1.80;;
64868;SDS011;51349;52.424;10.840;2022-10-23T11:53:04;2.67;;;2.28;;
64868;SDS011;51349;52.424;10.840;2022-10-23T11:58:24;3.38;;;2.30;;
64868;SDS011;51349;52.424;10.840;2022-10-23T12:03:56;2.63;;;2.00;;
64868;SDS011;51349;52.424;10.840;2022-10-23T12:14:52;2.00;;;1.70;;
64868;SDS011;51349;52.424;10.840;2022-10-23T12:19:55;4.30;;;1.83;;
64868;SDS011;51349;52.424;10.840;2022-10-23T12:25:19;4.13;;;1.85;;
64868;SDS011;51349;52.424;10.840;2022-10-23T12:30:23;4.43;;;1.90;;
64868;SDS011;51349;52.424;10.840;2022-10-23T12:41:32;2.42;;;1.60;;
64868;SDS011;51349;52.424;10.840;2022-10-23T12:46:47;2.58;;;1.50;;
64868;SDS011;51349;52.424;10.840;2022-10-23T12:52:13;1.45;;;1.30;;
64868;SDS011;51349;52.424;10.840;2022-10-23T12:57:24;3.70;;;1.60;;
64868;SDS011;51349;52.424;10.840;2022-10-23T13:02:45;1.73;;;1.50;;
64868;SDS011;51349;52.424;10.840;2022-10-23T13:07:57;3.92;;;1.58;;
64868;SDS011;51349;52.424;10.840;2022-10-23T13:13:03;2.92;;;1.50;;
64868;SDS011;51349;52.424;10.840;2022-10-23T13:18:06;4.28;;;1.60;;
64868;SDS011;51349;52.424;10.840;2022-10-23T13:23:18;1.70;;;1.55;;
64868;SDS011;51349;52.424;10.840;2022-10-23T13:28:42;3.47;;;2.10;;
64868;SDS011;51349;52.424;10.840;2022-10-23T13:33:45;2.63;;;1.60;;
64868;SDS011;51349;52.424;10.840;2022-10-23T13:44:13;1.77;;;1.48;;
64868;SDS011;51349;52.424;10.840;2022-10-23T13:49:15;5.72;;;1.67;;
64868;SDS011;51349;52.424;10.840;2022-10-23T13:54:17;1.67;;;1.50;;
64868;SDS011;51349;52.424;10.840;2022-10-23T13:59:20;1.55;;;1.42;;
64868;SDS011;51349;52.424;10.840;2022-10-23T14:04:22;2.35;;;1.70;;
64868;SDS011;51349;52.424;10.840;2022-10-23T14:09:23;2.60;;;2.35;;
64868;SDS011;51349;52.424;10.840;2022-10-23T14:14:24;2.13;;;1.63;;
64868;SDS011;51349;52.424;10.840;2022-10-23T14:19:25;3.78;;;2.30;;
64868;SDS011;51349;52.424;10.840;2022-10-23T14:24:25;4.40;;;2.42;;
64868;SDS011;51349;52.424;10.840;2022-10-23T14:29:26;2.47;;;2.28;;
64868;SDS011;51349;52.424;10.840;2022-10-23T14:34:29;3.28;;;2.75;;
64868;SDS011;51349;52.424;10.840;2022-10-23T14:39:30;4.88;;;4.47;;
64868;SDS011;51349;52.424;10.840;2022-10-23T14:44:34;4.55;;;3.00;;
64868;SDS011;51349;52.424;10.840;2022-10-23T14:49:37;8.38;;;4.63;;
64868;SDS011;51349;52.424;10.840;2022-10-23T14:54:39;4.72;;;3.15;;
64868;SDS011;51349;52.424;10.840;2022-10-23T14:59:39;4.20;;;3.20;;
64868;SDS011;51349;52.424;10.840;2022-10-23T15:04:40;3.33;;;2.90;;
64868;SDS011;51349;52.424;10.840;2022-10-23T15:09:41;4.70;;;3.20;;
64868;SDS011;51349;52.424;10.840;2022-10-23T15:14:42;3.70;;;2.65;;
64868;SDS011;51349;52.424;10.840;2022-10-23T15:19:42;3.90;;;2.53;;
64868;SDS011;51349;52.424;10.840;2022-10-23T15:24:43;2.67;;;2.47;;
64868;SDS011;51349;52.424;10.840;2022-10-23T15:29:45;3.20;;;2.75;;
64868;SDS011;51349;52.424;10.840;2022-10-23T15:34:45;5.35;;;3.13;;
64868;SDS011;51349;52.424;10.840;2022-10-23T15:39:48;3.08;;;2.75;;
64868;SDS011;51349;52.424;10.840;2022-10-23T15:44:49;3.72;;;3.42;;
64868;SDS011;51349;52.424;10.840;2022-10-23T15:49:49;3.10;;;2.78;;
64868;SDS011;51349;52.424;10.840;2022-10-23T15:54:50;3.25;;;2.75;;
64868;SDS011;51349;52.424;10.840;2022-10-23T15:59:51;3.75;;;3.15;;
64868;SDS011;51349;52.424;10.840;2022-10-23T16:04:51;2.90;;;2.65;;
64868;SDS011;51349;52.424;10.840;2022-10-23T16:09:52;4.53;;;4.20;;
64868;SDS011;51349;52.424;10.840;2022-10-23T16:14:53;4.28;;;3.83;;
64868;SDS011;51349;52.424;10.840;2022-10-23T16:19:53;5.75;;;4.55;;
64868;SDS011;51349;52.424;10.840;2022-10-23T16:24:54;10.63;;;5.60;;
64868;SDS011;51349;52.424;10.840;2022-10-23T16:29:55;4.97;;;3.40;;
64868;SDS011;51349;52.424;10.840;2022-10-23T16:34:55;4.95;;;2.97;;
64868;SDS011;51349;52.424;10.840;2022-10-23T16:39:56;2.80;;;2.60;;
64868;SDS011;51349;52.424;10.840;2022-10-23T16:44:57;3.25;;;2.85;;
64868;SDS011;51349;52.424;10.840;2022-10-23T16:49:58;12.50;;;7.18;;
64868;SDS011;51349;52.424;10.840;2022-10-23T16:54:58;3.97;;;3.60;;
64868;SDS011;51349;52.424;10.840;2022-10-23T16:59:59;3.80;;;3.40;;
64868;SDS011;51349;52.424;10.840;2022-10-23T17:04:59;4.18;;;3.50;;
64868;SDS011;51349;52.424;10.840;2022-10-23T17:10:00;4.80;;;3.92;;
64868;SDS011;51349;52.424;10.840;2022-10-23T17:15:01;5.18;;;3.30;;
64868;SDS011;51349;52.424;10.840;2022-10-23T17:20:02;4.93;;;3.10;;
64868;SDS011;51349;52.424;10.840;2022-10-23T17:25:04;3.58;;;3.20;;
64868;SDS011;51349;52.424;10.840;2022-10-23T17:30:05;4.75;;;3.00;;
64868;SDS011;51349;52.424;10.840;2022-10-23T17:35:07;2.58;;;2.38;;
64868;SDS011;51349;52.424;10.840;2022-10-23T17:40:08;3.10;;;2.90;;
64868;SDS011;51349;52.424;10.840;2022-10-23T17:45:08;4.72;;;3.13;;
64868;SDS011;51349;52.424;10.840;2022-10-23T17:50:09;3.95;;;3.63;;
64868;SDS011;51349;52.424;10.840;2022-10-23T17:55:11;6.75;;;3.20;;
64868;SDS011;51349;52.424;10.840;2022-10-23T18:00:15;3.67;;;3.30;;
64868;SDS011;51349;52.424;10.840;2022-10-23T18:05:15;6.90;;;3.60;;
64868;SDS011;51349;52.424;10.840;2022-10-23T18:10:16;3.55;;;2.60;;
64868;SDS011;51349;52.424;10.840;2022-10-23T18:15:17;3.88;;;3.58;;
64868;SDS011;51349;52.424;10.840;2022-10-23T18:20:17;2.80;;;2.60;;
64868;SDS011;51349;52.424;10.840;2022-10-23T18:25:18;2.90;;;2.70;;
64868;SDS011;51349;52.424;10.840;2022-10-23T18:30:19;3.45;;;3.15;;
64868;SDS011;51349;52.424;10.840;2022-10-23T18:35:19;3.40;;;3.10;;
64868;SDS011;51349;52.424;10.840;2022-10-23T18:40:20;5.82;;;2.90;;
64868;SDS011;51349;52.424;10.840;2022-10-23T18:45:20;8.52;;;3.33;;
64868;SDS011;51349;52.424;10.840;2022-10-23T18:50:22;4.40;;;2.70;;
64868;SDS011;51349;52.424;10.840;2022-10-23T18:55:23;3.70;;;2.38;;
64868;SDS011;51349;52.424;10.840;2022-10-23T19:00:23;3.45;;;2.40;;
64868;SDS011;51349;52.424;10.840;2022-10-23T19:05:24;3.55;;;2.50;;
64868;SDS011;51349;52.424;10.840;2022-10-23T19:10:24;2.88;;;2.53;;
64868;SDS011;51349;52.424;10.840;2022-10-23T19:15:27;4.82;;;2.75;;
64868;SDS011;51349;52.424;10.840;2022-10-23T19:20:28;5.65;;;2.50;;
64868;SDS011;51349;52.424;10.840;2022-10-23T19:25:30;2.80;;;2.60;;
64868;SDS011;51349;52.424;10.840;2022-10-23T19:30:33;5.80;;;2.97;;
64868;SDS011;51349;52.424;10.840;2022-10-23T19:35:34;4.00;;;3.70;;
64868;SDS011;51349;52.424;10.840;2022-10-23T19:40:34;3.53;;;3.17;;
64868;SDS011;51349;52.424;10.840;2022-10-23T19:45:35;3.58;;;3.28;;
64868;SDS011;51349;52.424;10.840;2022-10-23T19:50:37;4.68;;;3.20;;
64868;SDS011;51349;52.424;10.840;2022-10-23T19:55:40;3.17;;;2.97;;
64868;SDS011;51349;52.424;10.840;2022-10-23T20:00:40;4.78;;;3.30;;
64868;SDS011;51349;52.424;10.840;2022-10-23T20:05:44;3.20;;;3.00;;
64868;SDS011;51349;52.424;10.840;2022-10-23T20:10:45;8.35;;;3.80;;
64868;SDS011;51349;52.424;10.840;2022-10-23T20:15:48;3.47;;;3.17;;
64868;SDS011;51349;52.424;10.840;2022-10-23T20:20:49;3.40;;;3.20;;
64868;SDS011;51349;52.424;10.840;2022-10-23T20:25:49;4.78;;;3.78;;
64868;SDS011;51349;52.424;10.840;2022-10-23T20:30:50;4.50;;;4.20;;
64868;SDS011;51349;52.424;10.840;2022-10-23T20:35:51;4.63;;;3.70;;
64868;SDS011;51349;52.424;10.840;2022-10-23T20:40:54;4.72;;;4.00;;
64868;SDS011;51349;52.424;10.840;2022-10-23T20:46:05;4.88;;;4.35;;
64868;SDS011;51349;52.424;10.840;2022-10-23T20:51:08;4.82;;;4.38;;
64868;SDS011;51349;52.424;10.840;2022-10-23T20:56:14;6.25;;;5.00;;
64868;SDS011;51349;52.424;10.840;2022-10-23T21:01:16;6.45;;;5.95;;
64868;SDS011;51349;52.424;10.840;2022-10-23T21:06:18;4.78;;;4.38;;
64868;SDS011;51349;52.424;10.840;2022-10-23T21:11:18;4.50;;;4.10;;
64868;SDS011;51349;52.424;10.840;2022-10-23T21:16:20;3.58;;;3.38;;
64868;SDS011;51349;52.424;10.840;2022-10-23T21:21:28;4.20;;;3.90;;
64868;SDS011;51349;52.424;10.840;2022-10-23T21:26:32;3.67;;;2.83;;
64868;SDS011;51349;52.424;10.840;2022-10-23T21:31:32;3.35;;;2.97;;
64868;SDS011;51349;52.424;10.840;2022-10-23T21:36:33;3.50;;;2.80;;
64868;SDS011;51349;52.424;10.840;2022-10-23T21:41:34;5.20;;;2.33;;
64868;SDS011;51349;52.424;10.840;2022-10-23T21:46:35;2.80;;;2.60;;
64868;SDS011;51349;52.424;10.840;2022-10-23T21:51:36;6.05;;;4.80;;
64868;SDS011;51349;52.424;10.840;2022-10-23T21:56:47;2.58;;;2.33;;
64868;SDS011;51349;52.424;10.840;2022-10-23T22:01:49;4.38;;;2.60;;
64868;SDS011;51349;52.424;10.840;2022-10-23T22:06:50;4.70;;;2.90;;
64868;SDS011;51349;52.424;10.840;2022-10-23T22:11:52;8.20;;;2.70;;
64868;SDS011;51349;52.424;10.840;2022-10-23T22:16:53;3.85;;;2.80;;
64868;SDS011;51349;52.424;10.840;2022-10-23T22:21:53;3.20;;;2.50;;
64868;SDS011;51349;52.424;10.840;2022-10-23T22:26:54;3.65;;;2.70;;
64868;SDS011;51349;52.424;10.840;2022-10-23T22:31:56;4.35;;;2.70;;
64868;SDS011;51349;52.424;10.840;2022-10-23T22:36:57;3.72;;;2.63;;
64868;SDS011;51349;52.424;10.840;2022-10-23T22:41:58;2.53;;;2.25;;
64868;SDS011;51349;52.424;10.840;2022-10-23T22:46:58;4.43;;;2.42;;
64868;SDS011;51349;52.424;10.840;2022-10-23T22:51:59;2.40;;;2.30;;
64868;SDS011;51349;52.424;10.840;2022-10-23T22:56:59;2.85;;;2.20;;
64868;SDS011;51349;52.424;10.840;2022-10-23T23:02:00;4.13;;;2.70;;
64868;SDS011;51349;52.424;10.840;2022-10-23T23:07:01;3.40;;;2.47;;
64868;SDS011;51349;52.424;10.840;2022-10-23T23:12:01;4.97;;;2.45;;
64868;SDS011;51349;52.424;10.840;2022-10-23T23:17:02;2.53;;;2.30;;
64868;SDS011;51349;52.424;10.840;2022-10-23T23:22:03;5.95;;;2.80;;
64868;SDS011;51349;52.424;10.840;2022-10-23T23:27:04;2.60;;;2.20;;
64868;SDS011;51349;52.424;10.840;2022-10-23T23:32:05;2.88;;;2.63;;
64868;SDS011;51349;52.424;10.840;2022-10-23T23:37:05;2.75;;;2.20;;
64868;SDS011;51349;52.424;10.840;2022-10-23T23:42:06;4.10;;;2.70;;
64868;SDS011;51349;52.424;10.840;2022-10-23T23:47:07;2.70;;;2.50;;
64868;SDS011;51349;52.424;10.840;2022-10-23T23:52:07;3.30;;;2.50;;
64868;SDS011;51349;52.424;10.840;2022-10-23T23:57:09;2.70;;;2.50;;
